EST,Max TemperatureF,Mean TemperatureF,Min TemperatureF,Max Dew PointF,MeanDew PointF,Min DewpointF,Max Humidity, Mean Humidity, Min Humidity, Max Sea Level PressureIn, Mean Sea Level PressureIn, Min Sea Level PressureIn, Max VisibilityMiles, Mean VisibilityMiles, Min VisibilityMiles, Max Wind SpeedMPH, Mean Wind SpeedMPH, Max Gust SpeedMPH,PrecipitationIn, CloudCover, Events, WindDirDegrees
2013-12-1,40,32,23,29,24,19,88,71,54,30.27,30.11,29.98,10,10,10,12,7,17,0.00,6,,214
2013-12-2,45,40,34,33,31,27,82,74,65,29.97,29.88,29.81,10,10,10,10,5,14,0.00,6,,200
2013-12-3,48,42,35,38,35,31,92,77,61,29.95,29.90,29.83,10,8,4,10,4,16,0.01,5,Rain,207
2013-12-4,56,46,35,42,37,33,92,77,61,30.05,29.99,29.95,10,7,5,14,6,21,0.00,3,,178
2013-12-5,61,52,42,57,51,42,100,86,72,29.99,29.93,29.90,10,6,0,20,9,26,0.40,8,Fog-Rain,228
2013-12-6,42,34,26,41,29,25,100,96,92,30.22,30.07,29.95,10,4,0,14,8,19,0.73,8,Fog-Rain-Snow,345
2013-12-7,26,21,15,25,19,11,100,89,77,30.57,30.35,30.14,10,7,1,18,10,23,0.01,7,Snow,305
2013-12-8,25,18,11,23,15,8,100,90,80,30.56,30.35,30.16,10,5,0,18,7,24,0.11,7,Fog-Rain-Snow,122
2013-12-9,34,29,24,34,29,23,100,93,85,30.17,30.01,29.94,10,4,0,23,13,32,0.02,8,Fog-Rain-Snow,211
2013-12-10,27,23,18,22,16,8,92,75,57,30.20,29.99,29.90,10,5,0,30,15,39,0.01,7,Fog-Snow,269
2013-12-11,24,20,15,18,11,6,92,72,52,30.32,30.25,30.14,10,7,1,32,16,44,T,4,Snow,269
2013-12-12,17,13,9,14,6,-1,88,71,53,30.42,30.28,30.19,10,6,1,26,16,35,T,7,Snow,273
2013-12-13,28,22,15,13,9,1,61,56,50,30.29,30.22,30.19,10,10,10,30,14,43,0.00,1,,257
2013-12-14,31,29,26,30,24,12,92,71,50,30.26,29.98,29.64,10,4,0,21,11,31,0.11,8,Fog-Rain-Snow,148
2013-12-15,33,25,17,33,25,5,100,84,67,29.95,29.68,29.54,10,3,0,35,19,44,0.02,8,Fog-Rain-Snow,263
2013-12-16,24,18,12,21,12,5,96,76,56,30.14,30.04,29.92,10,4,1,32,9,39,T,8,Snow,269
2013-12-17,31,27,23,29,25,21,100,89,78,30.05,29.92,29.84,10,5,1,20,10,28,0.08,8,Rain-Snow,227
2013-12-18,24,22,20,20,18,15,92,83,74,30.19,30.05,29.91,10,4,1,21,15,31,0.02,7,Snow,257
2013-12-19,46,35,24,32,24,12,68,56,43,30.10,30.08,30.06,10,10,8,30,16,46,T,0,Rain,238
2013-12-20,51,47,43,46,34,21,93,65,37,30.04,29.97,29.92,10,10,8,16,11,23,0.03,7,Rain,212
2013-12-21,59,55,50,55,51,46,100,89,77,29.94,29.88,29.77,10,9,2,17,11,24,0.52,7,Rain,201
2013-12-22,62,57,52,56,51,48,93,83,72,29.96,29.85,29.67,10,10,3,28,14,39,0.17,7,Rain,229
2013-12-23,52,39,25,48,35,17,100,84,68,30.25,30.06,29.94,10,7,0,29,13,35,0.05,8,Fog-Rain-Snow,283
2013-12-24,25,17,8,20,13,2,92,76,59,30.48,30.23,30.12,10,5,0,28,14,33,T,8,Fog-Snow,279
2013-12-25,22,14,5,10,6,3,91,74,56,30.51,30.40,30.26,10,10,5,17,7,21,T,6,Snow,189
2013-12-26,29,25,20,24,19,10,96,77,57,30.33,30.16,30.06,10,6,0,25,13,33,0.02,7,Fog-Snow,245
2013-12-27,34,27,19,21,16,10,73,56,39,30.35,30.31,30.22,10,10,10,24,11,34,T,3,,241
2013-12-28,48,39,30,24,21,17,61,50,38,30.27,30.19,30.08,10,10,10,21,11,29,0.00,0,,225
2013-12-29,44,39,34,38,35,16,100,67,33,30.04,29.73,29.58,10,4,0,25,9,40,0.83,8,Fog-Rain,298
2013-12-30,35,26,17,34,20,10,100,87,73,30.17,29.99,29.76,10,5,1,29,11,35,0.02,8,Rain-Snow,293
2013-12-31,21,19,17,19,15,11,92,83,73,30.28,30.06,29.95,10,3,0,28,16,37,0.01,8,Fog-Snow,254